Time;durP1;ratioP1;P1;durP2;ratioP2;P2;SDS_P1;SDS_P2;PMS_P1;PMS_P2;Temp;Humidity;BMP_temperature;BMP_pressure;BME280_temperature;BME280_humidity;BME280_pressure;Samples;Min_cycle;Max_cycle;Signal;HPM_P1;HPM_P2
2024/03/19 00:00:45;;;;;;;9.23;6.60;;;8.90;99.90;;;;;;4779348;30;20246;-78
2024/03/19 00:03:23;;;;;;;11.23;6.80;;;8.90;99.90;;;;;;4801117;30;20454;-79
2024/03/19 00:05:49;;;;;;;10.00;7.43;;;8.80;99.90;;;;;;4794942;29;20437;-78
2024/03/19 00:08:15;;;;;;;10.63;7.37;;;8.80;99.90;;;;;;4801128;30;20420;-78
2024/03/19 00:10:41;;;;;;;11.30;7.73;;;8.80;99.90;;;;;;4775397;30;20495;-77
2024/03/19 00:13:07;;;;;;;11.87;6.93;;;8.80;99.90;;;;;;4772265;30;20181;-79
2024/03/19 00:15:32;;;;;;;12.97;8.17;;;8.80;99.90;;;;;;4767457;29;20387;-79
2024/03/19 00:17:58;;;;;;;13.17;6.40;;;8.90;99.90;;;;;;4775213;30;20271;-78
2024/03/19 00:20:24;;;;;;;10.33;7.93;;;8.90;99.90;;;;;;4789526;30;20596;-78
2024/03/19 00:22:49;;;;;;;10.97;7.80;;;9.10;99.90;;;;;;4766716;30;20227;-79
2024/03/19 00:25:15;;;;;;;11.47;7.87;;;9.20;99.90;;;;;;4768962;30;20266;-78
2024/03/19 00:27:41;;;;;;;11.60;7.50;;;9.30;99.90;;;;;;4769576;30;20579;-79
2024/03/19 00:30:10;;;;;;;10.70;6.97;;;9.30;99.90;;;;;;4781037;30;20215;-78
2024/03/19 00:32:39;;;;;;;13.47;8.37;;;9.40;99.90;;;;;;4773908;30;20536;-77
2024/03/19 00:35:09;;;;;;;10.10;7.23;;;9.40;99.90;;;;;;4761073;30;20839;-78
2024/03/19 00:37:39;;;;;;;12.33;8.60;;;9.50;99.90;;;;;;4789717;29;20460;-78
2024/03/19 00:40:10;;;;;;;11.17;7.87;;;9.50;99.90;;;;;;4786672;30;20442;-78
2024/03/19 00:42:43;;;;;;;11.37;7.20;;;9.50;99.90;;;;;;4787149;30;20521;-78
2024/03/19 00:45:09;;;;;;;11.60;6.60;;;9.50;99.90;;;;;;4778231;30;20480;-79
2024/03/19 00:47:35;;;;;;;16.00;7.83;;;9.60;99.90;;;;;;4762790;30;20533;-78
2024/03/19 00:50:01;;;;;;;8.43;6.33;;;9.60;99.90;;;;;;4771498;30;20476;-78
2024/03/19 00:52:27;;;;;;;8.20;6.00;;;9.60;99.90;;;;;;4769008;30;20429;-78
2024/03/19 00:54:53;;;;;;;9.60;5.70;;;9.60;99.90;;;;;;4787477;30;20196;-78
2024/03/19 00:57:21;;;;;;;9.47;6.93;;;9.60;99.90;;;;;;4766137;30;20446;-79
2024/03/19 00:59:46;;;;;;;11.00;6.87;;;9.60;99.90;;;;;;4787242;30;20488;-78
2024/03/19 01:02:12;;;;;;;9.00;6.83;;;9.60;99.90;;;;;;4785727;30;20520;-77
2024/03/19 01:04:38;;;;;;;8.73;6.53;;;9.60;99.90;;;;;;4764593;30;20465;-79
2024/03/19 01:07:04;;;;;;;9.57;6.10;;;9.50;99.90;;;;;;4787852;30;20338;-79
2024/03/19 01:09:32;;;;;;;10.17;7.10;;;9.40;99.90;;;;;;4782676;30;20496;-78
2024/03/19 01:11:58;;;;;;;10.30;7.23;;;9.40;99.90;;;;;;4788805;30;20421;-79
2024/03/19 01:14:24;;;;;;;10.40;7.13;;;9.20;99.90;;;;;;4779127;30;20453;-77
2024/03/19 01:16:49;;;;;;;11.90;6.73;;;9.20;99.90;;;;;;4764779;30;20590;-78
2024/03/19 01:19:15;;;;;;;10.50;7.40;;;9.10;99.90;;;;;;4777947;30;20439;-78
2024/03/19 01:21:41;;;;;;;13.00;6.87;;;9.00;99.90;;;;;;4791529;30;20272;-78
2024/03/19 01:24:06;;;;;;;8.10;7.20;;;8.90;99.90;;;;;;4779292;30;20592;-79
2024/03/19 01:26:33;;;;;;;15.13;7.80;;;8.90;99.90;;;;;;4772474;30;20216;-79
2024/03/19 01:28:59;;;;;;;12.07;7.87;;;8.80;99.90;;;;;;4773032;30;20455;-78
2024/03/19 01:31:28;;;;;;;8.90;7.00;;;8.70;99.90;;;;;;4780675;30;20449;-78
2024/03/19 01:33:54;;;;;;;10.80;7.47;;;8.60;99.90;;;;;;4773787;30;20434;-77
2024/03/19 01:36:20;;;;;;;12.63;7.80;;;8.60;99.90;;;;;;4796122;29;20544;-77
2024/03/19 01:38:46;;;;;;;11.20;6.83;;;8.50;99.90;;;;;;4783410;30;20722;-78
2024/03/19 01:41:15;;;;;;;9.50;6.60;;;8.50;99.90;;;;;;4791610;30;20283;-79
2024/03/19 01:43:41;;;;;;;11.10;7.17;;;8.50;99.90;;;;;;4787285;30;20592;-78
2024/03/19 01:46:07;;;;;;;9.93;7.43;;;8.40;99.90;;;;;;4762778;30;20490;-78
2024/03/19 01:48:38;;;;;;;10.63;6.70;;;8.40;99.90;;;;;;4777194;30;20193;-79
2024/03/19 01:51:04;;;;;;;11.60;6.87;;;8.40;99.90;;;;;;4785475;30;20237;-79
2024/03/19 01:53:30;;;;;;;12.90;7.00;;;8.40;99.90;;;;;;4766236;30;20442;-78
2024/03/19 01:55:57;;;;;;;10.60;7.80;;;8.30;99.90;;;;;;4778453;30;20251;-78
2024/03/19 01:58:23;;;;;;;13.60;7.70;;;8.30;99.90;;;;;;4772263;30;20438;-77
2024/03/19 02:00:49;;;;;;;10.87;8.20;;;8.30;99.90;;;;;;4768703;30;20510;-77
2024/03/19 02:03:16;;;;;;;11.13;8.57;;;8.30;99.90;;;;;;4775927;30;20422;-77
2024/03/19 02:05:46;;;;;;;17.50;9.13;;;8.30;99.90;;;;;;4780472;29;20726;-78
2024/03/19 02:08:12;;;;;;;11.90;7.97;;;8.20;99.90;;;;;;4760606;30;20437;-78
2024/03/19 02:10:38;;;;;;;10.20;6.33;;;8.20;99.90;;;;;;4773679;30;20463;-77
2024/03/19 02:13:05;;;;;;;9.77;6.93;;;8.20;99.90;;;;;;4788330;30;20199;-78
2024/03/19 02:15:30;;;;;;;9.90;6.10;;;8.10;99.90;;;;;;4784367;29;20432;-79
2024/03/19 02:17:56;;;;;;;11.80;7.03;;;8.10;99.90;;;;;;4766052;30;20508;-78
2024/03/19 02:20:22;;;;;;;11.30;7.63;;;8.00;99.90;;;;;;4788791;30;20256;-78
2024/03/19 02:22:49;;;;;;;13.90;7.63;;;8.10;99.90;;;;;;4789439;30;20582;-78
2024/03/19 02:25:16;;;;;;;9.63;6.47;;;8.00;99.90;;;;;;4782904;30;20207;-77
2024/03/19 02:27:45;;;;;;;11.17;6.60;;;8.00;99.90;;;;;;4773541;30;20514;-77
2024/03/19 02:30:12;;;;;;;8.73;6.47;;;7.90;99.90;;;;;;4773418;30;20569;-79
2024/03/19 02:32:38;;;;;;;9.60;7.33;;;7.90;99.90;;;;;;4781051;30;20425;-78
2024/03/19 02:35:04;;;;;;;11.90;6.90;;;7.90;99.90;;;;;;4759899;30;20437;-77
2024/03/19 02:37:29;;;;;;;14.37;8.40;;;7.90;99.90;;;;;;4795892;29;20215;-79
2024/03/19 02:39:55;;;;;;;11.80;7.17;;;7.90;99.90;;;;;;4770874;30;20503;-78
2024/03/19 02:42:21;;;;;;;10.77;7.43;;;7.90;99.90;;;;;;4765984;30;20263;-77
2024/03/19 02:44:47;;;;;;;15.50;7.20;;;7.90;99.90;;;;;;4752722;30;20231;-78
2024/03/19 02:47:12;;;;;;;9.90;6.53;;;7.90;99.90;;;;;;4771831;30;20228;-78
2024/03/19 02:49:38;;;;;;;12.10;8.63;;;7.90;99.90;;;;;;4769731;30;20480;-77
2024/03/19 02:52:04;;;;;;;7.93;6.57;;;8.00;99.90;;;;;;4768507;30;20211;-78
2024/03/19 02:54:30;;;;;;;13.53;7.60;;;8.00;99.90;;;;;;4784449;30;20183;-78
2024/03/19 02:56:56;;;;;;;10.53;7.10;;;8.00;99.90;;;;;;4768351;30;20449;-77
2024/03/19 02:59:22;;;;;;;11.87;7.73;;;8.10;99.90;;;;;;4766884;30;20188;-79
2024/03/19 03:01:47;;;;;;;14.40;6.90;;;8.10;99.90;;;;;;4758352;30;20212;-78
2024/03/19 03:04:13;;;;;;;9.97;6.60;;;8.20;99.90;;;;;;4767043;30;20195;-78
2024/03/19 03:06:39;;;;;;;10.50;7.90;;;8.20;99.90;;;;;;4772117;30;20253;-78
2024/03/19 03:09:06;;;;;;;9.40;7.07;;;8.30;99.90;;;;;;4785718;30;20248;-79
2024/03/19 03:11:33;;;;;;;10.80;7.67;;;8.30;99.90;;;;;;4781367;30;20466;-78
2024/03/19 03:13:58;;;;;;;11.07;8.57;;;8.30;99.90;;;;;;4782431;30;20589;-77
2024/03/19 03:16:24;;;;;;;13.80;7.73;;;8.40;99.90;;;;;;4781791;30;20935;-78
2024/03/19 03:18:50;;;;;;;13.07;7.83;;;8.40;99.90;;;;;;4763966;30;20324;-79
2024/03/19 03:21:17;;;;;;;10.73;7.43;;;8.40;99.90;;;;;;4783970;30;20207;-78
2024/03/19 03:23:43;;;;;;;10.43;7.13;;;8.40;99.90;;;;;;4777358;30;20830;-78
2024/03/19 03:26:09;;;;;;;14.57;7.40;;;8.40;99.90;;;;;;4786033;30;20460;-77
2024/03/19 03:28:35;;;;;;;9.90;6.80;;;8.50;99.90;;;;;;4772043;30;20522;-77
2024/03/19 03:31:02;;;;;;;7.87;6.40;;;8.50;99.90;;;;;;4789189;30;20429;-78
2024/03/19 03:33:28;;;;;;;7.23;5.20;;;8.50;99.90;;;;;;4787578;30;20196;-78
2024/03/19 03:35:54;;;;;;;8.30;5.83;;;8.50;99.90;;;;;;4762327;30;20472;-77
2024/03/19 03:38:19;;;;;;;7.40;5.40;;;8.50;99.90;;;;;;4768365;30;20512;-77
2024/03/19 03:40:46;;;;;;;6.97;5.07;;;8.50;99.90;;;;;;4791946;30;20207;-78
2024/03/19 03:43:13;;;;;;;7.70;6.13;;;8.50;99.90;;;;;;4765677;30;20589;-77
2024/03/19 03:45:39;;;;;;;9.10;6.80;;;8.50;99.90;;;;;;4759036;30;20446;-77
2024/03/19 03:48:06;;;;;;;9.43;6.40;;;8.50;99.90;;;;;;4756771;30;20470;-79
2024/03/19 03:50:32;;;;;;;8.30;5.73;;;8.50;99.90;;;;;;4771636;30;20491;-78
2024/03/19 03:52:57;;;;;;;10.57;6.40;;;8.50;99.90;;;;;;4773678;30;20513;-77
2024/03/19 03:55:23;;;;;;;6.90;4.60;;;8.40;99.90;;;;;;4776818;30;20206;-78
2024/03/19 03:57:49;;;;;;;10.13;6.00;;;8.40;99.90;;;;;;4783252;30;20211;-77
2024/03/19 04:00:17;;;;;;;7.70;5.47;;;8.40;99.90;;;;;;4791493;30;20504;-77
2024/03/19 04:02:45;;;;;;;8.93;6.30;;;8.40;99.90;;;;;;4762757;30;20199;-80
2024/03/19 04:05:12;;;;;;;9.47;7.47;;;8.40;99.90;;;;;;4762727;30;20510;-78
2024/03/19 04:07:44;;;;;;;10.57;6.60;;;8.40;99.90;;;;;;4775015;30;20445;-78
2024/03/19 04:10:12;;;;;;;15.07;7.47;;;8.50;99.90;;;;;;4784138;30;20619;-77
2024/03/19 04:12:38;;;;;;;16.90;7.87;;;8.40;99.90;;;;;;4769439;30;20426;-77
2024/03/19 04:15:05;;;;;;;9.50;7.13;;;8.40;99.90;;;;;;4791722;30;20505;-78
2024/03/19 04:17:33;;;;;;;12.00;7.40;;;8.40;99.90;;;;;;4765531;30;20219;-77
2024/03/19 04:19:59;;;;;;;9.83;6.30;;;8.40;99.90;;;;;;4774895;30;20460;-78
2024/03/19 04:22:26;;;;;;;16.30;8.43;;;8.40;99.90;;;;;;4790509;30;20902;-78
2024/03/19 04:24:52;;;;;;;12.20;9.10;;;8.40;99.90;;;;;;4760539;30;20434;-80
2024/03/19 04:27:17;;;;;;;11.00;6.73;;;8.30;99.90;;;;;;4765774;30;20453;-77
2024/03/19 04:29:43;;;;;;;7.43;5.67;;;8.30;99.90;;;;;;4773422;30;20460;-78
2024/03/19 04:32:09;;;;;;;10.97;7.10;;;8.20;99.90;;;;;;4784383;30;20188;-78
2024/03/19 04:34:34;;;;;;;11.83;7.13;;;8.20;99.90;;;;;;4780132;30;20191;-79
2024/03/19 04:37:00;;;;;;;9.97;7.00;;;8.10;99.90;;;;;;4779601;30;20724;-79
2024/03/19 04:39:26;;;;;;;13.57;7.00;;;8.10;99.90;;;;;;4772454;30;20226;-78
2024/03/19 04:41:51;;;;;;;13.40;8.47;;;8.10;99.90;;;;;;4795973;30;20218;-79
2024/03/19 04:44:17;;;;;;;11.17;7.10;;;8.20;99.90;;;;;;4781564;30;20668;-79
2024/03/19 04:46:43;;;;;;;12.40;7.33;;;8.20;99.90;;;;;;4783043;29;20228;-80
2024/03/19 04:49:09;;;;;;;13.80;8.70;;;8.20;99.90;;;;;;4770501;30;20230;-77
2024/03/19 04:51:34;;;;;;;11.63;8.03;;;8.30;99.90;;;;;;4781951;30;20206;-79
2024/03/19 04:54:00;;;;;;;11.53;8.47;;;8.30;99.90;;;;;;4771548;30;20198;-79
2024/03/19 04:56:25;;;;;;;14.87;8.63;;;8.40;99.90;;;;;;4784554;30;20212;-78
2024/03/19 04:58:51;;;;;;;9.53;6.50;;;8.40;99.90;;;;;;4788077;30;20252;-78
2024/03/19 05:01:18;;;;;;;14.90;7.50;;;8.40;99.90;;;;;;4789745;30;20204;-80
2024/03/19 05:03:44;;;;;;;10.30;6.47;;;8.50;99.90;;;;;;4792792;30;20207;-79
2024/03/19 05:06:11;;;;;;;10.37;6.17;;;8.50;99.90;;;;;;4780434;30;20461;-79
2024/03/19 05:08:39;;;;;;;9.63;6.57;;;8.50;99.90;;;;;;4801680;30;20438;-78
2024/03/19 05:11:05;;;;;;;9.00;6.80;;;8.60;99.90;;;;;;4778881;30;20828;-78
2024/03/19 05:13:31;;;;;;;9.67;7.13;;;8.60;99.90;;;;;;4793691;30;20473;-79
2024/03/19 05:15:58;;;;;;;13.10;7.60;;;8.60;99.90;;;;;;4794584;30;20212;-79
2024/03/19 05:18:24;;;;;;;12.30;7.47;;;8.60;99.90;;;;;;4795822;30;20424;-79
2024/03/19 05:20:50;;;;;;;8.17;5.60;;;8.60;99.90;;;;;;4795938;30;20180;-79
2024/03/19 05:23:16;;;;;;;9.90;6.93;;;8.60;99.90;;;;;;4748714;30;20442;-80
2024/03/19 05:25:42;;;;;;;12.53;7.77;;;8.60;99.90;;;;;;4784999;29;20421;-79
2024/03/19 05:28:08;;;;;;;9.20;6.33;;;8.60;99.90;;;;;;4794284;30;20425;-79
2024/03/19 05:30:34;;;;;;;9.07;6.07;;;8.60;99.90;;;;;;4783963;30;20481;-79
2024/03/19 05:33:00;;;;;;;13.47;6.83;;;8.60;99.90;;;;;;4753761;30;20450;-79
2024/03/19 05:35:26;;;;;;;15.07;7.40;;;8.60;99.90;;;;;;4809039;29;20455;-80
2024/03/19 05:37:54;;;;;;;11.00;7.50;;;8.60;99.90;;;;;;4779606;29;20446;-78
2024/03/19 05:40:22;;;;;;;11.00;7.27;;;8.70;99.90;;;;;;4786785;30;20426;-80
2024/03/19 05:42:49;;;;;;;8.67;5.90;;;8.70;99.90;;;;;;4791121;29;20437;-79
2024/03/19 05:45:15;;;;;;;8.27;5.50;;;8.70;99.90;;;;;;4762444;30;20463;-80
2024/03/19 05:47:41;;;;;;;8.47;6.90;;;8.70;99.90;;;;;;4781285;30;20511;-79
2024/03/19 05:50:10;;;;;;;10.77;6.57;;;8.70;99.90;;;;;;4791074;30;20473;-79
2024/03/19 05:52:56;;;;;;;14.77;6.93;;;8.80;99.90;;;;;;4765311;30;20422;-79
2024/03/19 05:55:21;;;;;;;10.60;6.80;;;8.80;99.90;;;;;;4779213;29;20476;-81
2024/03/19 05:57:48;;;;;;;9.50;6.73;;;8.80;99.90;;;;;;4779532;29;20465;-79
2024/03/19 06:00:21;;;;;;;10.20;6.17;;;8.80;99.90;;;;;;4783199;29;20464;-80
2024/03/19 06:02:51;;;;;;;12.87;7.27;;;8.80;99.90;;;;;;4784668;30;20184;-80
2024/03/19 06:05:18;;;;;;;10.53;7.40;;;8.80;99.90;;;;;;4769825;29;20480;-79
2024/03/19 06:07:45;;;;;;;10.00;6.87;;;8.80;99.90;;;;;;4764548;29;20445;-80
2024/03/19 06:10:12;;;;;;;10.30;6.80;;;8.80;99.90;;;;;;4749832;30;20460;-80
2024/03/19 06:12:58;;;;;;;10.03;6.20;;;8.80;99.90;;;;;;4780088;29;20506;-79
2024/03/19 06:15:34;;;;;;;9.00;6.73;;;8.70;99.90;;;;;;4763355;29;20431;-81
2024/03/19 06:18:02;;;;;;;9.63;7.40;;;8.70;99.90;;;;;;4748520;29;20456;-79
2024/03/19 06:20:31;;;;;;;11.90;7.67;;;8.70;99.90;;;;;;4794503;29;20440;-81
2024/03/19 06:22:57;;;;;;;9.93;7.20;;;8.70;99.90;;;;;;4778444;29;20433;-82
2024/03/19 06:25:24;;;;;;;9.90;7.90;;;8.70;99.90;;;;;;4771499;29;20429;-82
2024/03/19 06:27:50;;;;;;;10.90;6.47;;;8.80;99.90;;;;;;4781671;29;20450;-82
2024/03/19 06:30:17;;;;;;;9.63;6.40;;;8.90;99.90;;;;;;4785059;29;20217;-81
2024/03/19 06:32:43;;;;;;;13.00;7.83;;;9.00;99.90;;;;;;4761116;30;20438;-80
2024/03/19 06:35:09;;;;;;;11.10;7.00;;;9.10;99.90;;;;;;4790640;29;20453;-80
2024/03/19 06:38:02;;;;;;;10.40;8.60;;;9.20;99.90;;;;;;4771372;29;20466;-81
2024/03/19 06:40:32;;;;;;;7.30;5.33;;;9.30;99.90;;;;;;4770769;29;20181;-81
2024/03/19 06:42:59;;;;;;;11.90;8.37;;;9.40;99.90;;;;;;4776031;29;20483;-82
2024/03/19 06:45:30;;;;;;;12.57;7.70;;;9.50;99.90;;;;;;4797296;29;20435;-80
2024/03/19 06:47:57;;;;;;;10.20;7.33;;;9.60;99.90;;;;;;4780564;29;20457;-79
2024/03/19 06:50:41;;;;;;;8.57;6.50;;;9.60;99.90;;;;;;4788922;29;20574;-84
2024/03/19 06:53:09;;;;;;;10.13;7.60;;;9.70;99.90;;;;;;4784771;29;20429;-81
2024/03/19 06:55:39;;;;;;;12.13;7.77;;;9.70;99.90;;;;;;4788608;29;20527;-79
2024/03/19 07:00:55;;;;;;;10.93;7.10;;;9.70;99.90;;;;;;3662467;24;20501;-80
2024/03/19 07:03:22;;;;;;;11.63;7.87;;;9.80;99.90;;;;;;4808453;29;20421;-81
2024/03/19 07:05:50;;;;;;;12.43;7.40;;;9.80;99.90;;;;;;4832501;29;20190;-81
2024/03/19 07:08:16;;;;;;;16.23;8.90;;;9.90;99.90;;;;;;4836355;29;20442;-81
2024/03/19 07:10:53;;;;;;;9.47;6.70;;;10.00;99.90;;;;;;4805749;29;20463;-83
2024/03/19 07:13:35;;;;;;;11.40;8.00;;;10.10;99.90;;;;;;4828266;29;20468;-82
2024/03/19 07:16:08;;;;;;;12.53;7.20;;;10.20;99.90;;;;;;4817637;29;20577;-82
2024/03/19 07:18:55;;;;;;;11.20;7.63;;;10.30;99.90;;;;;;4813961;29;20465;-81
2024/03/19 07:21:22;;;;;;;11.93;8.57;;;10.40;99.90;;;;;;4814657;29;20503;-82
2024/03/19 07:23:50;;;;;;;10.63;7.60;;;10.40;99.90;;;;;;4815762;29;20419;-81
2024/03/19 07:26:20;;;;;;;13.20;8.60;;;10.50;99.90;;;;;;4815271;29;20962;-82
2024/03/19 07:29:28;;;;;;;13.87;8.40;;;10.50;99.90;;;;;;4818148;29;20451;-83
2024/03/19 07:31:56;;;;;;;13.67;7.50;;;10.50;99.90;;;;;;4804427;29;20469;-80
2024/03/19 07:34:31;;;;;;;9.77;7.40;;;10.60;99.90;;;;;;4784968;29;20424;-81
2024/03/19 07:36:59;;;;;;;13.43;7.33;;;10.70;99.90;;;;;;4830428;24;20521;-78
2024/03/19 07:39:28;;;;;;;13.17;8.20;;;10.70;99.90;;;;;;4791221;30;20445;-77
2024/03/19 07:41:53;;;;;;;13.43;9.00;;;10.80;99.90;;;;;;4796786;30;20260;-77
2024/03/19 07:44:19;;;;;;;13.80;8.33;;;10.80;99.90;;;;;;4790884;30;20436;-77
2024/03/19 07:46:45;;;;;;;11.13;8.10;;;10.80;99.90;;;;;;4777911;30;20228;-77
2024/03/19 07:49:11;;;;;;;9.43;7.53;;;10.80;99.90;;;;;;4782715;30;20228;-76
2024/03/19 07:51:37;;;;;;;9.13;7.03;;;10.90;99.90;;;;;;4790954;30;20973;-78
2024/03/19 07:54:02;;;;;;;11.70;8.20;;;11.00;99.90;;;;;;4785863;29;20202;-78
2024/03/19 07:56:30;;;;;;;10.40;7.87;;;11.10;99.90;;;;;;4778748;30;20215;-76
2024/03/19 07:58:56;;;;;;;12.90;8.50;;;11.20;99.90;;;;;;4788883;30;20271;-76
2024/03/19 08:01:22;;;;;;;12.20;8.30;;;11.30;99.90;;;;;;4778308;30;20450;-76
2024/03/19 08:03:48;;;;;;;9.27;6.77;;;11.40;99.90;;;;;;4790733;29;20460;-78
2024/03/19 08:06:14;;;;;;;12.90;8.70;;;11.40;99.90;;;;;;4795543;29;20470;-77
2024/03/19 08:08:40;;;;;;;11.90;7.80;;;11.40;99.90;;;;;;4786623;30;20243;-76
2024/03/19 08:11:06;;;;;;;11.80;7.97;;;11.40;99.90;;;;;;4782043;30;20203;-75
2024/03/19 08:13:31;;;;;;;11.70;8.33;;;11.50;99.90;;;;;;4789311;30;20442;-77
2024/03/19 08:15:57;;;;;;;11.37;7.00;;;11.50;99.90;;;;;;4781267;30;20311;-78
2024/03/19 08:18:26;;;;;;;13.33;8.20;;;11.50;99.90;;;;;;4800026;30;20195;-76
2024/03/19 08:20:52;;;;;;;9.40;7.23;;;11.60;99.90;;;;;;4793214;30;20815;-77
2024/03/19 08:23:17;;;;;;;12.83;7.90;;;11.60;99.90;;;;;;4773366;30;20274;-77
2024/03/19 08:25:46;;;;;;;9.70;6.20;;;11.70;99.90;;;;;;4781880;29;20450;-77
2024/03/19 08:28:14;;;;;;;7.93;6.37;;;11.70;99.90;;;;;;4791241;30;20183;-77
2024/03/19 08:30:45;;;;;;;15.43;7.53;;;11.80;99.90;;;;;;4774214;30;20904;-75
2024/03/19 08:33:11;;;;;;;9.63;7.47;;;11.90;99.90;;;;;;4785082;30;20417;-77
2024/03/19 08:35:39;;;;;;;12.63;6.97;;;11.90;99.90;;;;;;4794409;30;20474;-79
2024/03/19 08:38:05;;;;;;;12.30;6.90;;;12.00;99.90;;;;;;4786981;29;20443;-78
2024/03/19 08:40:31;;;;;;;9.00;6.30;;;12.00;99.90;;;;;;4791453;30;20443;-78
2024/03/19 08:42:57;;;;;;;11.50;7.50;;;12.00;99.90;;;;;;4800806;29;20212;-79
2024/03/19 08:45:25;;;;;;;15.50;8.80;;;12.00;99.90;;;;;;4795324;30;20427;-78
2024/03/19 08:47:54;;;;;;;14.73;8.20;;;12.00;99.90;;;;;;4786272;29;20467;-78
2024/03/19 08:50:20;;;;;;;12.17;8.30;;;11.90;99.90;;;;;;4791747;29;20470;-75
2024/03/19 08:52:46;;;;;;;9.63;7.20;;;11.90;99.90;;;;;;4803499;29;20435;-78
2024/03/19 08:55:12;;;;;;;8.73;5.80;;;11.90;99.90;;;;;;4791678;29;20480;-80
2024/03/19 08:57:39;;;;;;;14.63;7.90;;;11.90;99.90;;;;;;4778684;30;20457;-77
2024/03/19 09:00:11;;;;;;;13.67;7.80;;;11.90;99.90;;;;;;4792015;30;20917;-77
2024/03/19 09:02:38;;;;;;;12.37;7.33;;;12.00;99.90;;;;;;4796458;30;20437;-77
2024/03/19 09:05:05;;;;;;;12.77;6.90;;;12.00;99.90;;;;;;4790574;29;20437;-76
2024/03/19 09:07:32;;;;;;;14.23;8.43;;;12.00;99.90;;;;;;4813649;29;20455;-78
2024/03/19 09:09:58;;;;;;;11.90;7.40;;;12.10;99.90;;;;;;4786250;30;20462;-79
2024/03/19 09:12:24;;;;;;;11.20;8.03;;;12.10;99.90;;;;;;4791250;29;20472;-77
2024/03/19 09:14:49;;;;;;;12.23;7.00;;;12.30;99.90;;;;;;4789500;30;20197;-80
2024/03/19 09:17:15;;;;;;;10.20;7.80;;;12.40;99.90;;;;;;4784000;29;20219;-78
2024/03/19 09:19:41;;;;;;;10.90;8.10;;;12.50;99.90;;;;;;4791750;30;20200;-79
2024/03/19 09:22:12;;;;;;;12.87;8.90;;;12.70;99.90;;;;;;4807374;29;20429;-77
2024/03/19 09:24:38;;;;;;;13.03;8.70;;;12.80;99.90;;;;;;4786449;29;20457;-75
2024/03/19 09:27:06;;;;;;;10.50;7.50;;;12.90;99.90;;;;;;4794498;29;20613;-78
2024/03/19 09:29:31;;;;;;;9.47;7.70;;;13.00;99.90;;;;;;4790959;29;20465;-80
2024/03/19 09:31:57;;;;;;;16.20;7.80;;;13.10;99.90;;;;;;4798856;29;20432;-76
2024/03/19 09:34:24;;;;;;;13.67;8.27;;;13.30;99.90;;;;;;4788361;30;20205;-78
2024/03/19 09:36:50;;;;;;;15.93;7.93;;;13.60;99.90;;;;;;4779279;29;20476;-78
2024/03/19 09:39:15;;;;;;;12.37;8.53;;;13.90;99.90;;;;;;4778156;29;20434;-79
2024/03/19 09:41:46;;;;;;;11.23;7.63;;;14.10;99.90;;;;;;4802471;30;20259;-78
2024/03/19 09:44:18;;;;;;;8.77;6.67;;;14.10;99.90;;;;;;4800808;29;20232;-79
2024/03/19 09:46:45;;;;;;;10.73;6.53;;;14.10;99.90;;;;;;4789461;30;20973;-78
2024/03/19 09:49:17;;;;;;;7.40;6.53;;;14.10;99.90;;;;;;4776774;29;20565;-78
2024/03/19 09:51:43;;;;;;;10.60;6.87;;;14.20;99.90;;;;;;4784080;29;20440;-77
2024/03/19 09:54:14;;;;;;;10.90;7.20;;;14.30;99.90;;;;;;4794934;29;20476;-79
2024/03/19 09:56:42;;;;;;;9.57;7.53;;;14.40;99.90;;;;;;4791060;29;20230;-77
2024/03/19 09:59:17;;;;;;;8.90;6.50;;;14.40;99.90;;;;;;4791644;29;20444;-79
2024/03/19 10:01:45;;;;;;;14.30;7.30;;;14.30;99.90;;;;;;4804393;29;20447;-79
2024/03/19 10:04:16;;;;;;;9.83;6.03;;;14.40;99.90;;;;;;4791221;30;20441;-79
2024/03/19 10:06:43;;;;;;;10.17;5.97;;;14.40;99.90;;;;;;4907211;24;20563;-79
2024/03/19 10:09:10;;;;;;;8.40;5.73;;;14.50;99.90;;;;;;4800196;30;20464;-81
2024/03/19 10:11:36;;;;;;;10.73;6.60;;;14.70;99.90;;;;;;4771154;29;20440;-68
2024/03/19 10:14:03;;;;;;;12.50;6.17;;;14.80;99.90;;;;;;4807812;29;20451;-68
2024/03/19 10:16:31;;;;;;;13.23;7.47;;;14.80;99.90;;;;;;4774110;30;20446;-65
2024/03/19 10:18:57;;;;;;;6.10;5.10;;;14.80;99.90;;;;;;4775499;30;20460;-70
2024/03/19 10:21:23;;;;;;;6.93;5.40;;;15.00;99.90;;;;;;4779462;30;20213;-68
2024/03/19 10:23:49;;;;;;;8.40;5.43;;;14.90;99.90;;;;;;4775344;30;20216;-68
2024/03/19 10:26:21;;;;;;;10.57;5.73;;;15.00;99.90;;;;;;4769276;30;20467;-67
2024/03/19 10:28:47;;;;;;;9.30;5.53;;;15.00;99.90;;;;;;4776322;30;20541;-68
2024/03/19 10:31:12;;;;;;;8.90;5.30;;;15.00;99.90;;;;;;4777026;30;20534;-72
2024/03/19 10:33:38;;;;;;;14.43;5.97;;;15.00;99.90;;;;;;4774063;30;20243;-67
2024/03/19 10:36:04;;;;;;;7.63;4.90;;;15.00;99.10;;;;;;4783686;30;20211;-69
2024/03/19 10:38:30;;;;;;;23.53;13.60;;;15.10;98.90;;;;;;4776631;30;20219;-66
2024/03/19 10:40:59;;;;;;;6.80;4.90;;;15.10;97.00;;;;;;4775189;30;20420;-68
2024/03/19 10:43:25;;;;;;;9.83;5.20;;;15.10;97.00;;;;;;4781472;30;20727;-69
2024/03/19 10:45:52;;;;;;;17.60;6.50;;;15.20;96.50;;;;;;4780928;30;20719;-67
2024/03/19 10:48:19;;;;;;;8.00;5.40;;;15.20;95.70;;;;;;4777762;30;20483;-70
2024/03/19 10:50:48;;;;;;;10.20;5.10;;;15.30;94.50;;;;;;4782638;30;20503;-71
2024/03/19 10:53:20;;;;;;;7.03;4.10;;;15.30;93.80;;;;;;4784037;30;20437;-69
2024/03/19 10:55:54;;;;;;;8.90;4.37;;;15.30;94.40;;;;;;4781027;29;20522;-71
2024/03/19 10:58:22;;;;;;;5.70;4.87;;;15.40;93.50;;;;;;4780870;30;20727;-68
2024/03/19 11:00:48;;;;;;;14.57;5.60;;;15.50;93.30;;;;;;4784665;30;20438;-68
2024/03/19 11:03:20;;;;;;;5.97;4.10;;;15.50;92.50;;;;;;4780959;30;20451;-69
2024/03/19 11:06:04;;;;;;;7.67;4.70;;;15.40;92.00;;;;;;4789672;29;20545;-70
2024/03/19 11:08:30;;;;;;;6.23;3.80;;;15.50;92.10;;;;;;4778509;30;21280;-67
2024/03/19 11:11:06;;;;;;;5.40;4.03;;;15.60;91.80;;;;;;4768471;30;20481;-69
2024/03/19 11:13:35;;;;;;;6.80;3.57;;;15.70;91.00;;;;;;4776799;30;20203;-71
2024/03/19 11:16:11;;;;;;;8.73;3.80;;;15.80;90.50;;;;;;4769193;30;20973;-70
2024/03/19 11:18:48;;;;;;;6.00;3.20;;;15.80;89.40;;;;;;4773418;30;20574;-68
2024/03/19 11:21:19;;;;;;;6.17;3.07;;;15.90;87.70;;;;;;4781021;30;20436;-67
2024/03/19 11:23:46;;;;;;;7.53;3.47;;;16.10;85.90;;;;;;4773673;30;20439;-68
2024/03/19 11:26:15;;;;;;;4.93;2.90;;;16.20;84.40;;;;;;4785411;29;20887;-67
2024/03/19 11:28:41;;;;;;;7.03;2.87;;;16.40;83.20;;;;;;4758526;30;20428;-69
2024/03/19 11:31:06;;;;;;;6.50;3.20;;;16.40;82.20;;;;;;4757950;30;20529;-69
2024/03/19 11:33:38;;;;;;;6.23;2.90;;;16.40;80.90;;;;;;4743632;30;20222;-67
2024/03/19 11:36:04;;;;;;;3.60;2.50;;;16.40;80.20;;;;;;4753827;30;20290;-66
2024/03/19 11:38:31;;;;;;;5.20;2.90;;;16.50;79.60;;;;;;4766066;30;20451;-67
2024/03/19 11:41:00;;;;;;;8.50;2.80;;;16.50;78.40;;;;;;4758346;30;20473;-69
2024/03/19 11:43:26;;;;;;;6.23;2.80;;;16.60;78.00;;;;;;4755128;30;20449;-68
2024/03/19 11:45:52;;;;;;;4.53;2.57;;;16.50;76.60;;;;;;4756679;30;20462;-69
2024/03/19 11:48:21;;;;;;;3.30;1.90;;;16.60;76.30;;;;;;4741952;30;20465;-69
2024/03/19 11:50:59;;;;;;;4.80;2.13;;;16.60;76.20;;;;;;4757093;30;20220;-68
2024/03/19 11:53:26;;;;;;;6.20;2.60;;;16.60;75.50;;;;;;4755424;30;20478;-67
2024/03/19 11:55:55;;;;;;;4.47;2.37;;;16.70;75.50;;;;;;4757942;30;20521;-70
2024/03/19 11:58:22;;;;;;;4.03;2.27;;;16.80;75.10;;;;;;4746083;30;20535;-68
2024/03/19 12:00:48;;;;;;;7.67;2.70;;;16.80;75.40;;;;;;4780936;30;20877;-68
2024/03/19 12:03:16;;;;;;;5.40;2.20;;;16.90;75.10;;;;;;4767344;30;20433;-68
2024/03/19 12:05:45;;;;;;;8.03;3.10;;;16.80;75.50;;;;;;4774191;29;20425;-69
2024/03/19 12:08:11;;;;;;;4.90;2.80;;;16.80;74.50;;;;;;4770930;30;20465;-68
2024/03/19 12:10:37;;;;;;;6.47;2.33;;;16.80;73.50;;;;;;4780212;30;20972;-68
2024/03/19 12:13:02;;;;;;;4.73;2.17;;;16.70;73.30;;;;;;4764950;30;20257;-69
2024/03/19 12:15:28;;;;;;;4.70;1.93;;;16.60;72.00;;;;;;4778816;30;20203;-69
2024/03/19 12:17:54;;;;;;;6.13;2.47;;;16.60;72.00;;;;;;4775330;30;20214;-68
2024/03/19 12:20:20;;;;;;;6.40;3.07;;;16.50;72.10;;;;;;4773213;30;20263;-68
2024/03/19 12:22:47;;;;;;;8.90;2.30;;;16.60;73.20;;;;;;4777495;30;20494;-71
2024/03/19 12:25:14;;;;;;;7.13;2.53;;;16.60;72.20;;;;;;4777893;30;20511;-68
2024/03/19 12:27:40;;;;;;;5.53;1.87;;;16.60;72.60;;;;;;4770838;30;20488;-67
2024/03/19 12:30:11;;;;;;;8.47;3.10;;;16.70;72.60;;;;;;4778985;30;20500;-67
2024/03/19 12:32:47;;;;;;;5.20;2.10;;;16.70;72.20;;;;;;4778832;30;20440;-69
2024/03/19 12:35:13;;;;;;;6.20;1.67;;;16.80;72.30;;;;;;4785124;30;20440;-68
2024/03/19 12:37:39;;;;;;;4.40;1.90;;;16.90;70.60;;;;;;4776985;30;20462;-69
2024/03/19 12:40:11;;;;;;;6.47;2.40;;;16.80;70.20;;;;;;4772525;30;20442;-67
2024/03/19 12:42:37;;;;;;;5.77;2.00;;;16.90;69.90;;;;;;4772997;30;20471;-68
2024/03/19 12:45:04;;;;;;;8.17;2.67;;;16.90;70.10;;;;;;4780793;29;20687;-70
2024/03/19 12:47:30;;;;;;;4.93;1.60;;;16.90;70.60;;;;;;4782115;30;20555;-74
2024/03/19 12:49:55;;;;;;;2.80;1.57;;;16.90;70.70;;;;;;4774080;30;20489;-75